Time;durP1;ratioP1;P1;durP2;ratioP2;P2;SDS_P1;SDS_P2;PMS_P1;PMS_P2;Temp;Humidity;BMP_temperature;BMP_pressure;BME280_temperature;BME280_humidity;BME280_pressure;Samples;Min_cycle;Max_cycle;Signal;HPM_P1;HPM_P2
2023/06/27 00:01:30;;;;;;;4.88;1.20;;;;;;;15.20;100.00;101012.00;5019973;28;20117;-71
2023/06/27 00:04:00;;;;;;;2.55;1.10;;;;;;;15.29;100.00;101021.22;5017518;28;20049;-70
2023/06/27 00:06:27;;;;;;;4.60;1.52;;;;;;;15.13;100.00;101015.91;5013593;28;20099;-70
2023/06/27 00:08:54;;;;;;;7.00;1.10;;;;;;;15.07;100.00;101013.56;5018794;28;20084;-71
2023/06/27 00:11:21;;;;;;;5.13;1.20;;;;;;;15.04;100.00;101013.75;5019779;28;20041;-71
2023/06/27 00:13:49;;;;;;;2.83;1.10;;;;;;;15.01;100.00;101001.56;5025779;28;20085;-70
2023/06/27 00:16:17;;;;;;;3.40;1.10;;;;;;;15.16;100.00;101013.97;5028854;28;20096;-70
2023/06/27 00:18:50;;;;;;;3.95;1.27;;;;;;;15.15;100.00;100999.06;5023967;28;20414;-70
2023/06/27 00:21:17;;;;;;;4.00;1.10;;;;;;;15.26;100.00;101008.19;5026569;28;20418;-70
2023/06/27 00:23:44;;;;;;;6.22;1.10;;;;;;;15.10;100.00;101011.66;5018842;28;20052;-70
2023/06/27 00:26:13;;;;;;;3.30;1.20;;;;;;;14.95;100.00;101005.38;5019539;28;20145;-70
2023/06/27 00:28:40;;;;;;;4.47;1.30;;;;;;;14.56;100.00;100993.28;5026641;28;20105;-70
2023/06/27 00:31:07;;;;;;;5.68;1.50;;;;;;;14.46;100.00;101015.72;5043876;28;20497;-70
2023/06/27 00:33:34;;;;;;;2.65;1.20;;;;;;;14.20;100.00;101012.59;5030985;28;20060;-70
2023/06/27 00:36:01;;;;;;;5.00;1.50;;;;;;;14.23;100.00;101019.50;5022558;28;20054;-70
2023/06/27 00:38:27;;;;;;;2.75;1.20;;;;;;;14.18;100.00;101019.72;5026955;28;20049;-70
2023/06/27 00:40:54;;;;;;;3.95;1.23;;;;;;;14.27;100.00;101013.16;5028056;28;20443;-70
2023/06/27 00:43:21;;;;;;;2.97;1.15;;;;;;;14.33;100.00;101020.75;5029995;28;20049;-70
2023/06/27 00:45:49;;;;;;;4.32;1.10;;;;;;;14.31;100.00;101024.41;5025752;28;20129;-70
2023/06/27 00:48:16;;;;;;;4.50;1.20;;;;;;;14.29;100.00;101024.47;5020801;28;20132;-70
2023/06/27 00:50:45;;;;;;;5.00;1.40;;;;;;;14.47;100.00;101022.72;5031556;28;20056;-70
2023/06/27 00:53:12;;;;;;;5.43;1.40;;;;;;;14.30;100.00;101002.47;5024518;28;20077;-70
2023/06/27 00:55:40;;;;;;;4.85;1.30;;;;;;;14.40;100.00;101016.88;5012242;28;20061;-71
2023/06/27 00:58:11;;;;;;;2.95;1.10;;;;;;;14.28;100.00;101022.75;5029305;28;20476;-70
2023/06/27 01:00:37;;;;;;;2.03;0.95;;;;;;;14.49;100.00;101018.22;5030001;28;20053;-70
2023/06/27 01:03:04;;;;;;;3.08;1.33;;;;;;;14.42;100.00;101019.44;5031611;28;20049;-70
2023/06/27 01:05:32;;;;;;;4.60;1.10;;;;;;;14.34;100.00;100998.78;5024199;28;20041;-70
2023/06/27 01:08:14;;;;;;;3.47;1.10;;;;;;;14.06;100.00;101012.41;5031207;28;20049;-70
2023/06/27 01:10:55;;;;;;;2.90;1.10;;;;;;;14.01;100.00;101020.53;5023965;28;20468;-70
2023/06/27 01:13:55;;;;;;;3.35;1.15;;;;;;;14.03;100.00;101017.81;5028384;28;20056;-70
2023/06/27 01:16:26;;;;;;;4.55;1.33;;;;;;;13.88;100.00;101014.13;4997552;28;20049;-70
2023/06/27 01:18:54;;;;;;;5.00;1.30;;;;;;;13.85;100.00;101023.03;5029019;28;20406;-70
2023/06/27 01:21:25;;;;;;;5.43;1.40;;;;;;;13.68;100.00;101015.91;5031148;28;20406;-71
2023/06/27 01:23:54;;;;;;;3.58;1.20;;;;;;;13.66;100.00;101028.28;5022544;28;20507;-70
2023/06/27 01:26:22;;;;;;;5.25;1.40;;;;;;;13.54;100.00;101009.56;5028042;28;20128;-70
2023/06/27 01:28:50;;;;;;;2.72;1.20;;;;;;;13.51;100.00;101010.59;5037497;28;20045;-70
2023/06/27 01:31:38;;;;;;;3.10;1.02;;;;;;;13.85;100.00;101024.81;5037994;28;20551;-70
2023/06/27 01:34:23;;;;;;;2.90;1.05;;;;;;;14.13;100.00;101023.47;5036994;28;20517;-70
2023/06/27 01:37:06;;;;;;;4.80;1.35;;;;;;;14.17;100.00;101025.06;5026870;28;20107;-71
2023/06/27 01:39:41;;;;;;;6.65;1.95;;;;;;;14.10;100.00;101026.28;5048387;28;20053;-71
2023/06/27 01:42:23;;;;;;;7.43;1.73;;;;;;;14.23;100.00;101022.13;5029920;28;20042;-70
2023/06/27 01:44:51;;;;;;;7.07;1.40;;;;;;;14.19;100.00;101023.22;5025793;28;20064;-70
2023/06/27 01:47:21;;;;;;;3.90;1.58;;;;;;;14.31;100.00;101027.88;5029812;28;20426;-70
2023/06/27 01:49:47;;;;;;;5.50;1.48;;;;;;;14.21;100.00;101016.06;5046314;28;20752;-70
2023/06/27 01:52:14;;;;;;;3.28;1.20;;;;;;;14.15;100.00;101019.03;5050984;28;20044;-70
2023/06/27 01:54:43;;;;;;;6.97;1.65;;;;;;;14.31;100.00;101019.13;5033206;28;20081;-70
2023/06/27 01:57:11;;;;;;;6.38;1.55;;;;;;;14.22;100.00;101020.44;5030840;28;20049;-70
2023/06/27 01:59:38;;;;;;;5.85;1.52;;;;;;;14.11;100.00;101014.81;5030253;28;20060;-70
2023/06/27 02:02:05;;;;;;;4.72;1.27;;;;;;;14.20;100.00;101027.53;5038833;28;20045;-70
2023/06/27 02:04:33;;;;;;;4.57;1.42;;;;;;;14.36;100.00;101025.88;5042721;28;20247;-71
2023/06/27 02:06:59;;;;;;;5.88;1.30;;;;;;;14.28;100.00;101020.13;5043213;28;20045;-70
2023/06/27 02:09:26;;;;;;;4.03;1.30;;;;;;;14.40;100.00;101026.59;5035356;28;20057;-70
2023/06/27 02:11:53;;;;;;;5.65;1.67;;;;;;;14.35;100.00;101029.44;5035509;28;20053;-70
2023/06/27 02:14:20;;;;;;;3.55;1.23;;;;;;;14.24;100.00;101018.56;5026935;28;20056;-70
2023/06/27 02:16:46;;;;;;;4.28;1.40;;;;;;;14.34;100.00;101025.09;5030618;28;20060;-70
2023/06/27 02:19:13;;;;;;;6.07;1.60;;;;;;;14.34;100.00;101024.22;5021496;28;20084;-69
2023/06/27 02:21:40;;;;;;;3.47;1.20;;;;;;;14.32;100.00;101016.41;5036745;28;20049;-70
2023/06/27 02:24:06;;;;;;;4.40;1.27;;;;;;;14.40;100.00;101013.41;5041033;28;20040;-71
2023/06/27 02:26:33;;;;;;;5.63;1.50;;;;;;;14.38;100.00;101016.13;5029165;28;20136;-70
2023/06/27 02:29:00;;;;;;;8.32;1.48;;;;;;;14.42;100.00;101011.53;5033189;28;20506;-70
2023/06/27 02:31:27;;;;;;;2.95;1.10;;;;;;;14.46;100.00;101020.16;5033145;28;20042;-69
2023/06/27 02:33:54;;;;;;;4.60;1.30;;;;;;;14.41;100.00;101010.72;5029376;28;20060;-70
2023/06/27 02:36:22;;;;;;;5.40;1.02;;;;;;;14.40;100.00;101011.63;5024996;28;20140;-70
2023/06/27 02:38:49;;;;;;;3.78;1.25;;;;;;;14.28;100.00;101008.75;5036141;28;20053;-70
2023/06/27 02:41:16;;;;;;;4.55;1.10;;;;;;;14.12;100.00;100995.47;5027596;28;20170;-69
2023/06/27 02:43:43;;;;;;;7.47;1.60;;;;;;;13.99;100.00;100993.41;5029307;28;20050;-70
2023/06/27 02:46:09;;;;;;;5.22;1.10;;;;;;;13.98;100.00;100991.69;5026113;28;20053;-70
2023/06/27 02:48:36;;;;;;;6.30;1.35;;;;;;;14.02;100.00;100990.66;5029558;28;20103;-70
2023/06/27 02:51:03;;;;;;;2.50;1.05;;;;;;;14.13;100.00;100992.75;5033373;28;20069;-70
2023/06/27 02:53:30;;;;;;;4.68;1.45;;;;;;;14.09;100.00;100992.97;5035179;28;20041;-70
2023/06/27 02:56:01;;;;;;;4.85;1.23;;;;;;;14.08;100.00;100988.63;5024015;28;20053;-70
2023/06/27 02:58:29;;;;;;;6.28;1.75;;;;;;;14.22;100.00;100999.38;5032164;28;20076;-70
2023/06/27 03:00:58;;;;;;;4.22;1.38;;;;;;;14.13;100.00;100973.44;5026910;28;20053;-70
2023/06/27 03:03:25;;;;;;;4.60;1.25;;;;;;;13.96;100.00;100992.72;5033681;28;20140;-71
2023/06/27 03:05:52;;;;;;;4.05;1.30;;;;;;;13.84;100.00;101002.88;5025803;28;20107;-70
2023/06/27 03:08:19;;;;;;;3.60;1.20;;;;;;;13.91;100.00;100992.06;5031386;28;20048;-70
2023/06/27 03:10:46;;;;;;;4.25;1.30;;;;;;;13.98;100.00;100991.69;5045413;28;20163;-70
2023/06/27 03:13:13;;;;;;;7.07;1.60;;;;;;;14.13;100.00;100984.00;5028090;28;20137;-70
2023/06/27 03:15:39;;;;;;;6.85;1.50;;;;;;;14.02;100.00;100990.66;5025883;28;20399;-71
2023/06/27 03:18:06;;;;;;;5.63;1.80;;;;;;;13.75;100.00;100989.31;5028596;28;20517;-71
2023/06/27 03:20:33;;;;;;;7.07;1.63;;;;;;;13.48;100.00;101000.19;5035468;28;20049;-71
2023/06/27 03:23:00;;;;;;;5.45;1.60;;;;;;;13.41;100.00;100996.13;5047161;28;20045;-71
2023/06/27 03:25:27;;;;;;;5.25;1.50;;;;;;;13.70;100.00;100996.56;5030440;28;20434;-71
2023/06/27 03:27:54;;;;;;;7.75;1.50;;;;;;;13.81;100.00;100986.38;5040031;28;20510;-71
2023/06/27 03:30:21;;;;;;;4.80;1.42;;;;;;;13.69;100.00;100985.19;5034933;28;20422;-71
2023/06/27 03:32:48;;;;;;;4.70;1.25;;;;;;;13.68;100.00;100986.94;5032478;28;20080;-71
2023/06/27 03:35:15;;;;;;;5.22;1.50;;;;;;;13.67;100.00;100981.78;5030531;28;20072;-72
2023/06/27 03:37:41;;;;;;;5.78;1.45;;;;;;;13.77;100.00;100984.81;5041606;28;20049;-71
2023/06/27 03:40:09;;;;;;;2.95;1.30;;;;;;;13.98;100.00;100985.59;5044228;28;20084;-71
2023/06/27 03:42:35;;;;;;;5.38;1.35;;;;;;;14.04;100.00;100974.75;5033655;28;20045;-71
2023/06/27 03:45:03;;;;;;;7.07;1.58;;;;;;;13.90;100.00;100980.69;5048725;28;20554;-71
2023/06/27 03:47:30;;;;;;;5.78;1.95;;;;;;;13.73;100.00;100986.75;5043642;28;20380;-71
2023/06/27 03:49:57;;;;;;;4.82;1.30;;;;;;;13.54;100.00;100986.75;5019023;28;20049;-71
2023/06/27 03:52:23;;;;;;;6.55;1.38;;;;;;;13.56;100.00;100984.03;5032679;28;20773;-72
2023/06/27 03:54:50;;;;;;;4.57;1.60;;;;;;;13.67;100.00;100976.53;5038692;28;20049;-71
2023/06/27 03:57:16;;;;;;;4.80;1.50;;;;;;;13.78;100.00;100971.59;5041380;28;20410;-72
2023/06/27 03:59:43;;;;;;;5.53;1.67;;;;;;;13.98;100.00;100957.47;5035121;28;20144;-71
2023/06/27 04:02:10;;;;;;;3.30;1.30;;;;;;;13.93;100.00;100969.16;5041958;28;20041;-71
2023/06/27 04:04:37;;;;;;;4.07;1.40;;;;;;;14.01;100.00;100972.28;5034168;28;20775;-72
2023/06/27 04:07:04;;;;;;;2.95;1.10;;;;;;;14.12;100.00;100967.34;5032952;28;20403;-71
2023/06/27 04:09:30;;;;;;;4.90;1.20;;;;;;;14.24;100.00;100969.38;5035444;28;20057;-71
2023/06/27 04:11:59;;;;;;;5.68;1.42;;;;;;;14.20;100.00;100966.97;5035899;28;20053;-72
2023/06/27 04:14:27;;;;;;;5.43;1.70;;;;;;;14.21;100.00;100982.69;5029004;28;20053;-71
2023/06/27 04:16:54;;;;;;;3.55;1.38;;;;;;;14.15;100.00;100972.47;5038998;28;20141;-71
2023/06/27 04:19:21;;;;;;;2.67;1.10;;;;;;;14.19;100.00;100962.63;5036032;28;20053;-71
2023/06/27 04:21:48;;;;;;;6.68;1.60;;;;;;;14.19;100.00;100958.22;5029593;28;20038;-72
2023/06/27 04:24:14;;;;;;;7.80;2.10;;;;;;;14.18;100.00;100958.28;5028181;28;20054;-71
2023/06/27 04:26:42;;;;;;;3.75;1.27;;;;;;;14.02;100.00;100964.31;5041917;28;20140;-71
2023/06/27 04:29:10;;;;;;;3.85;1.23;;;;;;;13.97;100.00;100970.72;5031464;28;20506;-71
2023/06/27 04:31:36;;;;;;;5.13;1.80;;;;;;;14.31;100.00;100959.41;5036296;28;20055;-72
2023/06/27 04:34:03;;;;;;;5.28;1.60;;;;;;;14.35;100.00;100960.94;5034232;28;20152;-71
2023/06/27 04:36:30;;;;;;;4.45;1.20;;;;;;;14.29;100.00;100944.59;5044260;28;20049;-71
2023/06/27 04:38:56;;;;;;;7.00;1.48;;;;;;;14.43;100.00;100956.16;5031469;28;20088;-72
2023/06/27 04:41:23;;;;;;;5.30;1.58;;;;;;;14.23;100.00;100951.84;5034146;28;20079;-71
2023/06/27 04:43:50;;;;;;;6.18;1.95;;;;;;;14.58;100.00;100957.19;5034978;28;20045;-71
2023/06/27 04:46:17;;;;;;;4.78;1.50;;;;;;;15.15;100.00;100962.13;5032671;28;20048;-71
2023/06/27 04:48:44;;;;;;;5.68;1.40;;;;;;;16.45;100.00;100957.59;5041311;28;20067;-71
2023/06/27 04:51:10;;;;;;;5.90;1.75;;;;;;;16.30;100.00;100956.72;5044313;28;20099;-73
2023/06/27 04:53:37;;;;;;;6.72;1.30;;;;;;;15.45;100.00;100969.34;5039331;28;20048;-72
2023/06/27 04:56:04;;;;;;;6.40;1.83;;;;;;;15.04;100.00;100969.78;5025136;28;20402;-72
2023/06/27 04:58:30;;;;;;;5.75;1.70;;;;;;;14.77;100.00;100969.44;5036649;28;20542;-71
2023/06/27 05:00:57;;;;;;;7.28;1.70;;;;;;;14.61;100.00;100956.19;5030887;28;20049;-72
2023/06/27 05:03:24;;;;;;;7.80;2.03;;;;;;;14.68;100.00;100956.72;5045342;28;20073;-72
2023/06/27 05:05:51;;;;;;;3.83;1.35;;;;;;;14.86;100.00;100965.47;5036239;28;20063;-71
2023/06/27 05:08:18;;;;;;;4.72;1.58;;;;;;;14.98;100.00;100967.47;5040459;28;20387;-71
2023/06/27 05:10:45;;;;;;;4.30;1.55;;;;;;;15.00;100.00;100969.09;5041217;28;20053;-72
2023/06/27 05:13:15;;;;;;;8.10;1.60;;;;;;;14.60;100.00;100949.19;5031690;28;21295;-72
2023/06/27 05:15:42;;;;;;;5.88;1.70;;;;;;;14.57;100.00;100963.38;5031287;28;20535;-72
2023/06/27 05:18:09;;;;;;;5.57;1.70;;;;;;;14.59;100.00;100958.91;5029526;28;20073;-72
2023/06/27 05:20:36;;;;;;;6.63;1.77;;;;;;;14.84;100.00;100951.50;5039341;28;20053;-72
2023/06/27 05:23:05;;;;;;;7.35;1.50;;;;;;;15.45;100.00;100950.88;5038429;28;20152;-72
2023/06/27 05:25:32;;;;;;;4.60;1.30;;;;;;;15.81;100.00;100955.09;5021342;28;20136;-71
2023/06/27 05:27:59;;;;;;;8.00;1.90;;;;;;;15.66;100.00;100955.91;5030831;28;20050;-71
2023/06/27 05:30:27;;;;;;;6.30;1.77;;;;;;;15.92;100.00;100957.13;5017701;28;20542;-71
2023/06/27 05:32:54;;;;;;;5.10;1.50;;;;;;;16.95;100.00;100948.50;5035959;28;20170;-72
2023/06/27 05:35:22;;;;;;;5.28;1.40;;;;;;;17.50;100.00;100956.59;5022775;28;20053;-72
2023/06/27 05:37:48;;;;;;;5.70;1.40;;;;;;;17.50;100.00;100943.38;5034180;28;20045;-72
2023/06/27 05:40:15;;;;;;;6.55;1.40;;;;;;;17.49;100.00;100947.78;5029360;28;20057;-70
2023/06/27 05:42:42;;;;;;;5.22;1.60;;;;;;;18.00;100.00;100944.56;5024021;28;20117;-70
2023/06/27 05:45:10;;;;;;;5.93;1.23;;;;;;;18.21;100.00;100950.25;5022816;28;20050;-70
2023/06/27 05:47:36;;;;;;;4.53;1.40;;;;;;;18.13;100.00;100934.88;5019194;28;20426;-71
2023/06/27 05:50:03;;;;;;;4.93;1.45;;;;;;;18.36;100.00;100948.38;5018126;28;20050;-70
2023/06/27 05:52:30;;;;;;;6.50;1.60;;;;;;;17.92;100.00;100949.50;5029259;28;20059;-70
2023/06/27 05:54:58;;;;;;;5.25;1.17;;;;;;;17.91;100.00;100959.25;5025293;28;20080;-70
2023/06/27 05:57:24;;;;;;;4.15;1.10;;;;;;;18.32;100.00;100958.31;5026219;28;20077;-70
2023/06/27 05:59:51;;;;;;;4.97;1.20;;;;;;;19.19;100.00;100949.81;5030611;28;20045;-70
2023/06/27 06:02:18;;;;;;;4.07;1.00;;;;;;;19.06;100.00;100926.81;5029538;28;20077;-70
2023/06/27 06:04:45;;;;;;;5.15;1.30;;;;;;;19.51;100.00;100929.81;5026798;28;20050;-70
2023/06/27 06:07:12;;;;;;;4.10;1.20;;;;;;;19.43;100.00;100929.50;5024471;28;20103;-70
2023/06/27 06:09:38;;;;;;;6.93;1.08;;;;;;;18.83;100.00;100941.69;5018564;28;20061;-70
2023/06/27 06:12:06;;;;;;;4.93;1.40;;;;;;;18.64;100.00;100934.09;5025117;28;20048;-70
2023/06/27 06:14:32;;;;;;;11.35;1.90;;;;;;;18.66;100.00;100941.94;5028481;28;20049;-70
2023/06/27 06:16:59;;;;;;;4.90;1.20;;;;;;;18.41;100.00;100940.97;5027757;28;20048;-71
2023/06/27 06:19:26;;;;;;;4.68;1.38;;;;;;;18.83;100.00;100933.72;5027468;28;20128;-71
2023/06/27 06:21:53;;;;;;;5.55;1.17;;;;;;;19.72;100.00;100938.03;5022588;28;20507;-71
2023/06/27 06:24:19;;;;;;;4.50;1.17;;;;;;;19.48;100.00;100931.84;5020453;28;20058;-71
2023/06/27 06:26:46;;;;;;;4.28;1.20;;;;;;;19.55;100.00;100933.09;5020507;28;20544;-71
2023/06/27 06:29:13;;;;;;;6.20;1.00;;;;;;;20.14;100.00;100929.66;5020868;28;20042;-71
2023/06/27 06:31:40;;;;;;;4.93;1.08;;;;;;;19.88;100.00;100927.16;5018933;28;20424;-71
2023/06/27 06:34:08;;;;;;;5.40;1.27;;;;;;;19.26;100.00;100936.00;5029340;28;20045;-71
2023/06/27 06:36:34;;;;;;;6.35;1.10;;;;;;;19.15;100.00;100926.16;5026231;28;20492;-71
2023/06/27 06:39:01;;;;;;;2.33;1.00;;;;;;;19.38;100.00;100931.63;5022615;28;20059;-72
2023/06/27 06:41:28;;;;;;;3.95;1.27;;;;;;;19.42;100.00;100926.94;5023621;28;20046;-71
2023/06/27 06:43:55;;;;;;;2.63;1.00;;;;;;;19.60;100.00;100916.81;5027080;28;20139;-71
2023/06/27 06:46:23;;;;;;;5.97;1.25;;;;;;;19.98;100.00;100918.50;5026527;28;20059;-71
2023/06/27 06:48:51;;;;;;;6.65;1.25;;;;;;;20.20;100.00;100912.41;5027302;28;20517;-71
2023/06/27 06:51:18;;;;;;;4.53;1.25;;;;;;;19.69;100.00;100900.22;5018148;28;20042;-71
2023/06/27 06:53:45;;;;;;;3.55;1.00;;;;;;;19.91;100.00;100907.47;5021765;28;20046;-71
2023/06/27 06:56:12;;;;;;;4.45;1.35;;;;;;;19.61;100.00;100914.03;5025701;28;20072;-71
2023/06/27 06:58:39;;;;;;;4.38;1.20;;;;;;;19.61;100.00;100900.75;5027549;28;20049;-71
2023/06/27 07:01:06;;;;;;;3.10;1.10;;;;;;;19.89;100.00;100915.56;5020508;28;20056;-71
2023/06/27 07:03:36;;;;;;;4.40;1.17;;;;;;;19.54;100.00;100913.63;5024551;28;20056;-71
2023/06/27 07:06:03;;;;;;;6.50;1.20;;;;;;;19.51;100.00;100918.31;5025516;28;20057;-71
2023/06/27 07:08:30;;;;;;;8.57;1.60;;;;;;;19.76;100.00;100905.94;5046835;28;20042;-70
2023/06/27 07:10:57;;;;;;;3.72;1.13;;;;;;;19.35;100.00;100900.88;5030678;28;20088;-71
2023/06/27 07:13:24;;;;;;;6.30;1.23;;;;;;;19.40;100.00;100904.97;5024026;28;20512;-71
2023/06/27 07:15:50;;;;;;;7.00;1.70;;;;;;;18.88;100.00;100907.72;5025967;28;20484;-71
2023/06/27 07:18:17;;;;;;;4.78;1.45;;;;;;;18.54;100.00;100901.22;5024891;28;20050;-70
2023/06/27 07:20:44;;;;;;;5.88;1.52;;;;;;;19.08;100.00;100889.56;5029047;28;20089;-71
2023/06/27 07:23:10;;;;;;;7.63;1.77;;;;;;;19.14;100.00;100886.44;5032960;28;20042;-71
2023/06/27 07:25:38;;;;;;;5.55;1.58;;;;;;;19.14;100.00;100891.75;5030727;28;20055;-71
2023/06/27 07:28:05;;;;;;;7.63;1.77;;;;;;;19.23;100.00;100899.09;5032792;28;20052;-70
2023/06/27 07:30:32;;;;;;;8.43;1.90;;;;;;;20.05;100.00;100896.66;5030456;28;20283;-71
2023/06/27 07:32:59;;;;;;;9.43;1.70;;;;;;;20.48;100.00;100898.69;5033865;28;20487;-71
2023/06/27 07:35:28;;;;;;;9.15;1.70;;;;;;;20.16;100.00;100900.31;5029739;28;20084;-71
2023/06/27 07:37:55;;;;;;;5.45;1.25;;;;;;;19.61;100.00;100884.00;5033832;28;20821;-71
2023/06/27 07:40:22;;;;;;;2.63;0.90;;;;;;;19.48;100.00;100882.22;5033051;28;20053;-72
2023/06/27 07:42:49;;;;;;;5.40;1.33;;;;;;;19.67;100.00;100865.81;5027313;28;20049;-72
2023/06/27 07:45:16;;;;;;;4.70;1.25;;;;;;;19.54;100.00;100886.25;5029363;28;20086;-71
2023/06/27 07:47:43;;;;;;;6.78;1.45;;;;;;;19.93;100.00;100886.94;5032836;28;20053;-71
2023/06/27 07:50:10;;;;;;;6.65;1.40;;;;;;;19.96;100.00;100872.59;5029847;28;20046;-71
2023/06/27 07:52:37;;;;;;;7.55;1.30;;;;;;;20.08;100.00;100887.63;5032278;28;20052;-72
2023/06/27 07:55:04;;;;;;;5.20;1.30;;;;;;;20.26;100.00;100872.91;5026896;28;20057;-71
2023/06/27 07:57:30;;;;;;;7.13;1.15;;;;;;;20.65;100.00;100886.81;5031987;28;20049;-71
2023/06/27 07:59:57;;;;;;;6.30;1.85;;;;;;;21.32;100.00;100890.41;5031930;28;20107;-72
2023/06/27 08:02:25;;;;;;;4.18;1.17;;;;;;;20.74;100.00;100879.91;5033307;28;20570;-72
2023/06/27 08:04:52;;;;;;;5.60;1.20;;;;;;;20.36;100.00;100881.06;5021533;28;20435;-72
2023/06/27 08:07:19;;;;;;;6.90;1.42;;;;;;;20.55;100.00;100869.81;5026488;28;20545;-70
2023/06/27 08:09:45;;;;;;;6.20;1.40;;;;;;;20.43;100.00;100871.63;5018784;28;20473;-71
2023/06/27 08:12:12;;;;;;;5.47;1.45;;;;;;;20.25;100.00;100876.53;5021005;28;20050;-71
2023/06/27 08:14:43;;;;;;;4.38;1.20;;;;;;;20.18;100.00;100877.13;5021471;28;20555;-71
2023/06/27 08:17:10;;;;;;;3.85;1.17;;;;;;;20.35;100.00;100874.03;5022290;28;20046;-71
2023/06/27 08:19:37;;;;;;;6.43;1.60;;;;;;;20.05;100.00;100869.25;5025464;28;20053;-72
2023/06/27 08:22:04;;;;;;;6.65;1.48;;;;;;;20.39;100.00;100867.50;5031852;28;20089;-71
2023/06/27 08:24:30;;;;;;;7.80;1.55;;;;;;;20.92;100.00;100853.66;5023340;28;20097;-72
2023/06/27 08:26:58;;;;;;;9.57;1.98;;;;;;;20.35;100.00;100865.22;5023170;28;20053;-72
2023/06/27 08:29:25;;;;;;;8.35;1.50;;;;;;;20.36;100.00;100859.78;5020325;28;20132;-71
2023/06/27 08:31:58;;;;;;;5.80;1.42;;;;;;;20.79;100.00;100839.66;5030782;28;20045;-71
2023/06/27 08:34:26;;;;;;;5.13;1.10;;;;;;;21.51;100.00;100841.84;5038587;28;20065;-71
2023/06/27 08:36:53;;;;;;;5.53;1.58;;;;;;;22.00;100.00;100829.75;5029938;28;20089;-72
2023/06/27 08:39:19;;;;;;;7.53;1.55;;;;;;;22.17;100.00;100830.19;5029553;28;20052;-72
2023/06/27 08:41:46;;;;;;;7.18;1.50;;;;;;;22.42;100.00;100836.94;5026249;28;20439;-71
2023/06/27 08:44:14;;;;;;;7.28;1.50;;;;;;;22.49;100.00;100835.44;5024394;28;20049;-71
2023/06/27 08:46:43;;;;;;;8.57;1.60;;;;;;;21.75;100.00;100833.66;5028117;28;20057;-72
2023/06/27 08:49:14;;;;;;;6.35;1.52;;;;;;;22.06;100.00;100817.75;5030549;28;20750;-72
2023/06/27 08:51:43;;;;;;;6.45;1.20;;;;;;;21.77;100.00;100825.53;5030342;28;20056;-71
2023/06/27 08:54:19;;;;;;;6.88;1.15;;;;;;;22.09;100.00;100832.63;5026481;28;20137;-72
2023/06/27 08:56:46;;;;;;;6.28;1.63;;;;;;;22.38;100.00;100835.50;5032339;28;21279;-72
2023/06/27 08:59:16;;;;;;;9.20;1.80;;;;;;;22.45;100.00;100836.69;5030427;28;20084;-72
2023/06/27 09:01:43;;;;;;;7.93;1.60;;;;;;;22.33;100.00;100825.25;5026115;28;20042;-72
2023/06/27 09:04:11;;;;;;;8.65;1.90;;;;;;;21.61;100.00;100824.13;5025176;28;20477;-72
2023/06/27 09:06:40;;;;;;;10.43;1.85;;;;;;;21.02;100.00;100838.66;5026207;28;20059;-71
2023/06/27 09:09:08;;;;;;;6.32;1.50;;;;;;;21.03;100.00;100834.19;5028968;28;20577;-71
2023/06/27 09:11:36;;;;;;;9.65;1.85;;;;;;;20.86;100.00;100833.72;5025342;28;21268;-71
2023/06/27 09:14:04;;;;;;;11.68;2.33;;;;;;;20.55;100.00;100837.06;5024308;28;20507;-71
2023/06/27 09:16:31;;;;;;;7.15;1.65;;;;;;;20.61;100.00;100841.91;5026833;28;20128;-71
2023/06/27 09:18:58;;;;;;;9.65;2.17;;;;;;;20.16;100.00;100836.53;5028453;28;20119;-71
2023/06/27 09:21:26;;;;;;;10.32;2.33;;;;;;;20.18;100.00;100826.63;5024734;28;20057;-71
2023/06/27 09:23:57;;;;;;;9.25;2.35;;;;;;;20.23;100.00;100829.78;5026312;28;20115;-71
2023/06/27 09:26:27;;;;;;;9.98;1.98;;;;;;;20.79;100.00;100827.19;5026025;28;20434;-71
2023/06/27 09:28:58;;;;;;;10.10;2.10;;;;;;;21.16;100.00;100826.03;5030655;28;20054;-69
2023/06/27 09:31:35;;;;;;;8.55;1.73;;;;;;;21.26;100.00;100815.50;5012890;28;20054;-71
2023/06/27 09:34:06;;;;;;;10.35;2.30;;;;;;;21.28;100.00;100826.88;5007510;28;20477;-71
2023/06/27 09:36:37;;;;;;;11.95;2.35;;;;;;;21.42;100.00;100813.28;5008327;28;20061;-71
2023/06/27 09:39:09;;;;;;;11.63;2.60;;;;;;;20.80;100.00;100812.91;5011483;28;20434;-71
2023/06/27 09:41:53;;;;;;;7.95;2.05;;;;;;;20.75;100.00;100792.97;5025678;28;20075;-71
2023/06/27 09:44:22;;;;;;;11.65;2.30;;;;;;;21.21;100.00;100806.09;5025358;28;20067;-71
2023/06/27 09:46:51;;;;;;;8.32;1.80;;;;;;;21.22;100.00;100786.47;5027520;28;20360;-71
2023/06/27 09:49:20;;;;;;;12.05;2.58;;;;;;;21.21;100.00;100795.44;5028890;28;20104;-71
2023/06/27 09:51:49;;;;;;;10.52;2.10;;;;;;;21.21;100.00;100786.56;5026999;28;20045;-71
2023/06/27 09:54:23;;;;;;;13.05;2.10;;;;;;;20.35;100.00;100802.25;5026383;28;20085;-71
2023/06/27 09:56:57;;;;;;;9.35;2.42;;;;;;;20.70;100.00;100800.44;5028520;28;20470;-71
2023/06/27 09:59:30;;;;;;;7.80;2.03;;;;;;;20.71;100.00;100789.69;5032437;28;20050;-70
2023/06/27 10:02:01;;;;;;;12.32;2.40;;;;;;;20.45;100.00;100783.72;5041931;28;20077;-70
2023/06/27 10:04:29;;;;;;;11.90;2.83;;;;;;;20.61;100.00;100791.34;5027045;28;20041;-71
2023/06/27 10:07:08;;;;;;;11.68;2.20;;;;;;;20.77;100.00;100788.34;5024470;28;20045;-70
2023/06/27 10:09:39;;;;;;;13.63;2.50;;;;;;;20.00;100.00;100789.00;5008695;28;20193;-71
2023/06/27 10:12:14;;;;;;;14.75;2.63;;;;;;;20.59;100.00;100782.66;5024228;28;20049;-71
2023/06/27 10:14:43;;;;;;;13.00;2.38;;;;;;;20.97;100.00;100773.47;5022257;28;20050;-71
2023/06/27 10:17:11;;;;;;;10.98;2.20;;;;;;;20.55;100.00;100757.28;5028163;28;20085;-71
2023/06/27 10:19:38;;;;;;;11.40;2.67;;;;;;;20.64;100.00;100762.72;5028317;28;20136;-71
2023/06/27 10:22:10;;;;;;;12.20;2.17;;;;;;;20.88;100.00;100772.41;5024327;28;20518;-71
2023/06/27 10:24:42;;;;;;;12.52;2.63;;;;;;;20.06;100.00;100775.25;5026104;28;20136;-71
2023/06/27 10:27:13;;;;;;;14.38;2.95;;;;;;;20.32;100.00;100775.88;5026383;28;20056;-71
2023/06/27 10:29:43;;;;;;;8.15;2.05;;;;;;;19.62;100.00;100768.81;5026944;28;20053;-71
2023/06/27 10:32:18;;;;;;;11.82;2.75;;;;;;;19.43;100.00;100775.50;5028659;28;20057;-71
2023/06/27 10:34:47;;;;;;;9.38;2.50;;;;;;;19.45;100.00;100762.13;5023459;28;20483;-71
2023/06/27 10:37:24;;;;;;;14.57;2.92;;;;;;;19.70;100.00;100780.56;5018268;28;20132;-71
2023/06/27 10:40:00;;;;;;;14.52;2.88;;;;;;;19.47;100.00;100765.50;5021883;28;20503;-73
2023/06/27 10:42:29;;;;;;;11.40;2.50;;;;;;;19.60;100.00;100781.34;5020419;28;20129;-71
2023/06/27 10:44:56;;;;;;;11.80;2.42;;;;;;;19.73;100.00;100776.84;5026295;28;20053;-71
2023/06/27 10:47:23;;;;;;;11.52;2.90;;;;;;;19.46;100.00;100769.09;5022542;28;20049;-71
2023/06/27 10:49:53;;;;;;;12.13;2.08;;;;;;;19.80;100.00;100772.78;5024071;28;20057;-72
2023/06/27 10:52:24;;;;;;;12.82;3.30;;;;;;;19.31;100.00;100760.47;5015212;28;20547;-72
2023/06/27 10:55:18;;;;;;;14.48;2.65;;;;;;;19.27;100.00;100767.81;5011891;28;20046;-72
2023/06/27 10:57:49;;;;;;;11.88;2.97;;;;;;;19.26;100.00;100773.25;5020635;28;20383;-72
2023/06/27 11:00:31;;;;;;;11.18;2.13;;;;;;;19.14;100.00;100769.66;5028038;28;20536;-71
2023/06/27 11:03:03;;;;;;;12.75;2.75;;;;;;;19.08;100.00;100770.13;5022259;28;20088;-71
2023/06/27 11:05:45;;;;;;;11.40;2.10;;;;;;;18.75;100.00;100756.53;5021750;28;20143;-71
2023/06/27 11:08:17;;;;;;;11.38;2.50;;;;;;;18.50;100.00;100752.13;5033258;28;20140;-71
2023/06/27 11:10:59;;;;;;;10.20;2.20;;;;;;;18.73;100.00;100757.56;5017567;28;20129;-71
2023/06/27 11:13:34;;;;;;;7.22;1.85;;;;;;;18.67;100.00;100760.69;5024133;28;20399;-71
2023/06/27 11:16:02;;;;;;;12.02;2.65;;;;;;;18.80;100.00;100761.47;5019465;28;20041;-71
2023/06/27 11:18:29;;;;;;;9.40;2.40;;;;;;;18.57;100.00;100761.34;5043444;28;20053;-72
2023/06/27 11:20:57;;;;;;;11.32;2.40;;;;;;;18.58;100.00;100740.97;5021335;28;20037;-71
2023/06/27 11:23:25;;;;;;;8.82;2.22;;;;;;;18.46;100.00;100755.09;5026115;28;20052;-71